Etusivu
METAR-TAF:

METAR-TAF

Lentoasemat :

Hobart, Oklahoma, Yhdysvallat

Leveyspiiri: 34-59-22N, Pituuspiiri: 099-03-09W, korkeus merenpinnasta: 476 m

Tämänhetkinen sää

Tämä raportti tehtiin 19 minuuttia sitten, kello 20.53 UTC
Tuuli 10 kn lännestä/lounaasta puuskistuen 18 kn:hen
Lämpötila 39°C
Kosteus 26%
Ilmanpaine 1013 hPa
Näkyvyys: 16.1 km
selkeää

METAR: KHBR 212053Z AUTO 24010G18KT 10SM CLR 39/16 A2992 RMK AO2 SLP105 T03940156 56012

Aika: 16:12 (21:12 UTC)


TAF: puuttuu

Säähavainnot ja -ennusteet yli 4000 lentoasemalta (METAR- ja TAF-raportit).

Käytössä olevat sääasemat on merkitty karttaan keltaisilla ja punaisilla pisteillä.

Aseta hiiri pisteen päälle nähdäksesi sääaseman nimen.

Klikkaa sitten nähdäksesi säähavainnot ja -ennusteet.

Kartan vaihtaminen: klikkaa mustalla rastilla varustettuja vihreitä pisteitä, niin voit zoomata sisään; viivalla varustettua vihreää pistettä, niin voit zoomata ulos tai vihreitä nuolia, niin pääset viereisille kartoille.


METAR-TAF: